Time;durP1;ratioP1;P1;durP2;ratioP2;P2;SDS_P1;SDS_P2;PMS_P1;PMS_P2;Temp;Humidity;BMP_temperature;BMP_pressure;BME280_temperature;BME280_humidity;BME280_pressure;Samples;Min_cycle;Max_cycle;Signal;HPM_P1;HPM_P2
2023/09/01 00:00:27;;;;;;;;;;;;;;;;;;5076867;28;19916;-71
2023/09/01 00:02:53;;;;;;;;;;;;;;;;;;5082022;28;20348;-71
2023/09/01 00:05:19;;;;;;;;;;;;;;;;;;5060742;28;20375;-71
2023/09/01 00:07:44;;;;;;;;;;;;;;;;;;5071412;28;19904;-71
2023/09/01 00:10:13;;;;;;;;;;;;;;;;;;5062451;28;19911;-71
2023/09/01 00:12:39;;;;;;;;;;;;;;;;;;5071672;28;20007;-71
2023/09/01 00:15:05;;;;;;;;;;;;;;;;;;5071953;28;19954;-71
2023/09/01 00:17:31;;;;;;;;;;;;;;;;;;5053451;28;19905;-71
2023/09/01 00:19:57;;;;;;;;;;;;;;;;;;5074088;28;19997;-71
2023/09/01 00:22:23;;;;;;;;;;;;;;;;;;5085989;28;19904;-71
2023/09/01 00:24:49;;;;;;;;;;;;;;;;;;5071646;28;19905;-71
2023/09/01 00:27:15;;;;;;;;;;;;;;;;;;5062032;28;19911;-72
2023/09/01 00:29:43;;;;;;;;;;;;;;;;;;5079618;28;19989;-71
2023/09/01 00:32:09;;;;;;;;;;;;;;;;;;5063752;28;20369;-71
2023/09/01 00:34:34;;;;;;;;;;;;;;;;;;5070522;28;19995;-71
2023/09/01 00:37:00;;;;;;;;;;;;;;;;;;5053599;28;19904;-71
2023/09/01 00:39:26;;;;;;;;;;;;;;;;;;5077547;28;19903;-71
2023/09/01 00:41:52;;;;;;;;;;;;;;;;;;5063555;28;19911;-71
2023/09/01 00:44:18;;;;;;;;;;;;;;;;;;5071269;28;19915;-71
2023/09/01 00:46:46;;;;;;;;;;;;;;;;;;5071117;28;19939;-71
2023/09/01 00:49:12;;;;;;;;;;;;;;;;;;5071013;28;19912;-71
2023/09/01 00:51:37;;;;;;;;;;;;;;;;;;5071632;28;19905;-71
2023/09/01 00:54:03;;;;;;;;;;;;;;;;;;5053577;28;19904;-71
2023/09/01 00:56:32;;;;;;;;;;;;;;;;;;5071290;28;19904;-71
2023/09/01 00:58:58;;;;;;;;;;;;;;;;;;5070531;28;19905;-71
2023/09/01 01:01:24;;;;;;;;;;;;;;;;;;5070365;28;19908;-71
2023/09/01 01:03:51;;;;;;;;;;;;;;;;;;5071108;28;19904;-70
2023/09/01 01:06:17;;;;;;;;;;;;;;;;;;5053449;28;19995;-72
2023/09/01 01:08:43;;;;;;;;;;;;;;;;;;5051607;28;19944;-70
2023/09/01 01:11:09;;;;;;;;;;;;;;;;;;5053631;28;19909;-70
2023/09/01 01:13:35;;;;;;;;;;;;;;;;;;5053035;28;20367;-70
2023/09/01 01:16:01;;;;;;;;;;;;;;;;;;5071322;28;19915;-70
2023/09/01 01:18:27;;;;;;;;;;;;;;;;;;5070603;28;19905;-71
2023/09/01 01:20:53;;;;;;;;;;;;;;;;;;5071059;28;20390;-70
2023/09/01 01:23:20;;;;;;;;;;;;;;;;;;5070804;28;20367;-71
2023/09/01 01:25:46;;;;;;;;;;;;;;;;;;5071273;28;19905;-71
2023/09/01 01:28:12;;;;;;;;;;;;;;;;;;5070250;28;19927;-71
2023/09/01 01:30:38;;;;;;;;;;;;;;;;;;5070994;28;20427;-71
2023/09/01 01:33:04;;;;;;;;;;;;;;;;;;5070965;28;19904;-71
2023/09/01 01:35:29;;;;;;;;;;;;;;;;;;5071162;28;20599;-71
2023/09/01 01:37:55;;;;;;;;;;;;;;;;;;5070507;28;19908;-71
2023/09/01 01:40:21;;;;;;;;;;;;;;;;;;5066177;28;20328;-71
2023/09/01 01:42:48;;;;;;;;;;;;;;;;;;5068172;28;19911;-71
2023/09/01 01:45:14;;;;;;;;;;;;;;;;;;5070564;28;19983;-71
2023/09/01 01:47:40;;;;;;;;;;;;;;;;;;5071833;28;19916;-71
2023/09/01 01:50:06;;;;;;;;;;;;;;;;;;5074597;28;20682;-71
2023/09/01 01:52:32;;;;;;;;;;;;;;;;;;5075193;28;19904;-71
2023/09/01 01:54:58;;;;;;;;;;;;;;;;;;5079700;28;19911;-71
2023/09/01 01:57:24;;;;;;;;;;;;;;;;;;5079263;28;19912;-70
2023/09/01 01:59:50;;;;;;;;;;;;;;;;;;5075260;28;20390;-71
2023/09/01 02:02:16;;;;;;;;;;;;;;;;;;5075179;28;19911;-71
2023/09/01 02:04:42;;;;;;;;;;;;;;;;;;5075134;28;19995;-71
2023/09/01 02:07:08;;;;;;;;;;;;;;;;;;5075047;28;19905;-71
2023/09/01 02:09:33;;;;;;;;;;;;;;;;;;5074216;28;19912;-71
2023/09/01 02:11:59;;;;;;;;;;;;;;;;;;5085880;28;19987;-71
2023/09/01 02:14:25;;;;;;;;;;;;;;;;;;5075551;28;19912;-71
2023/09/01 02:16:51;;;;;;;;;;;;;;;;;;5074207;28;19911;-71
2023/09/01 02:19:17;;;;;;;;;;;;;;;;;;5072483;28;19912;-71
2023/09/01 02:21:45;;;;;;;;;;;;;;;;;;5073756;28;20399;-71
2023/09/01 02:24:11;;;;;;;;;;;;;;;;;;5073947;28;19904;-71
2023/09/01 02:26:36;;;;;;;;;;;;;;;;;;5073997;28;19911;-71
2023/09/01 02:29:05;;;;;;;;;;;;;;;;;;5073389;28;19911;-72
2023/09/01 02:31:30;;;;;;;;;;;;;;;;;;5073934;28;19904;-71
2023/09/01 02:33:57;;;;;;;;;;;;;;;;;;5073606;28;19927;-71
2023/09/01 02:36:24;;;;;;;;;;;;;;;;;;5073681;28;19930;-71
2023/09/01 02:38:50;;;;;;;;;;;;;;;;;;5074591;28;19965;-71
2023/09/01 02:41:16;;;;;;;;;;;;;;;;;;5085426;28;20367;-72
2023/09/01 02:43:42;;;;;;;;;;;;;;;;;;5076952;28;19911;-72
2023/09/01 02:46:07;;;;;;;;;;;;;;;;;;5073816;28;20307;-72
2023/09/01 02:48:33;;;;;;;;;;;;;;;;;;5072904;28;19904;-71
2023/09/01 02:50:59;;;;;;;;;;;;;;;;;;5054938;28;19915;-71
2023/09/01 02:53:25;;;;;;;;;;;;;;;;;;5073496;28;19911;-71
2023/09/01 02:55:51;;;;;;;;;;;;;;;;;;5073379;28;20398;-72
2023/09/01 02:58:20;;;;;;;;;;;;;;;;;;5072682;28;19950;-72
2023/09/01 03:00:46;;;;;;;;;;;;;;;;;;5054082;28;19913;-71
2023/09/01 03:03:12;;;;;;;;;;;;;;;;;;5081685;28;19904;-72
2023/09/01 03:05:38;;;;;;;;;;;;;;;;;;5073349;28;20329;-72
2023/09/01 03:08:05;;;;;;;;;;;;;;;;;;5054287;28;19904;-71
2023/09/01 03:10:31;;;;;;;;;;;;;;;;;;5073423;28;20264;-71
2023/09/01 03:12:57;;;;;;;;;;;;;;;;;;5073686;28;19919;-70
2023/09/01 03:15:23;;;;;;;;;;;;;;;;;;5073040;28;20329;-70
2023/09/01 03:17:49;;;;;;;;;;;;;;;;;;5070683;28;20381;-70
2023/09/01 03:20:15;;;;;;;;;;;;;;;;;;5072686;28;19908;-71
2023/09/01 03:22:41;;;;;;;;;;;;;;;;;;5063453;28;19978;-71
2023/09/01 03:25:09;;;;;;;;;;;;;;;;;;5058371;28;19908;-71
2023/09/01 03:27:35;;;;;;;;;;;;;;;;;;5079556;28;19904;-70
2023/09/01 03:30:02;;;;;;;;;;;;;;;;;;5068388;28;19908;-70
2023/09/01 03:32:28;;;;;;;;;;;;;;;;;;5072616;28;20304;-70
2023/09/01 03:34:55;;;;;;;;;;;;;;;;;;5063045;28;19905;-70
2023/09/01 03:37:22;;;;;;;;;;;;;;;;;;5072011;28;19911;-70
2023/09/01 03:39:48;;;;;;;;;;;;;;;;;;5072967;28;19915;-71
2023/09/01 03:42:14;;;;;;;;;;;;;;;;;;5078217;28;19910;-71
2023/09/01 03:44:39;;;;;;;;;;;;;;;;;;5072504;28;19939;-71
2023/09/01 03:47:05;;;;;;;;;;;;;;;;;;5054160;28;19909;-71
2023/09/01 03:49:31;;;;;;;;;;;;;;;;;;5071894;28;19950;-71
2023/09/01 03:51:57;;;;;;;;;;;;;;;;;;5074399;28;19905;-71
2023/09/01 03:54:23;;;;;;;;;;;;;;;;;;5078225;28;20288;-71
2023/09/01 03:56:50;;;;;;;;;;;;;;;;;;5071882;28;20350;-71
2023/09/01 03:59:15;;;;;;;;;;;;;;;;;;5071209;28;20370;-71
2023/09/01 04:01:45;;;;;;;;;;;;;;;;;;5071989;28;20002;-71
2023/09/01 04:04:11;;;;;;;;;;;;;;;;;;5072191;28;20307;-71
2023/09/01 04:06:37;;;;;;;;;;;;;;;;;;5071994;28;19909;-71
2023/09/01 04:09:03;;;;;;;;;;;;;;;;;;5070992;28;19912;-71
2023/09/01 04:11:29;;;;;;;;;;;;;;;;;;5054211;28;19904;-71
2023/09/01 04:13:55;;;;;;;;;;;;;;;;;;5073540;28;20315;-71
2023/09/01 04:16:21;;;;;;;;;;;;;;;;;;5068618;28;19912;-71
2023/09/01 04:18:47;;;;;;;;;;;;;;;;;;5079547;28;19908;-70
2023/09/01 04:21:13;;;;;;;;;;;;;;;;;;5071903;28;19908;-70
2023/09/01 04:23:40;;;;;;;;;;;;;;;;;;5087784;28;19915;-72
2023/09/01 04:26:06;;;;;;;;;;;;;;;;;;5083923;28;19973;-71
2023/09/01 04:28:32;;;;;;;;;;;;;;;;;;5084367;28;19908;-71
2023/09/01 04:30:59;;;;;;;;;;;;;;;;;;5071630;28;19946;-71
2023/09/01 04:33:26;;;;;;;;;;;;;;;;;;5079454;28;19905;-71
2023/09/01 04:35:52;;;;;;;;;;;;;;;;;;5071594;28;19987;-71
2023/09/01 04:38:17;;;;;;;;;;;;;;;;;;5070802;28;20027;-71
2023/09/01 04:40:43;;;;;;;;;;;;;;;;;;5071639;28;19908;-71
2023/09/01 04:43:09;;;;;;;;;;;;;;;;;;5070671;28;19950;-71
2023/09/01 04:45:35;;;;;;;;;;;;;;;;;;5071599;28;19905;-71
2023/09/01 04:48:01;;;;;;;;;;;;;;;;;;5070702;28;19939;-71
2023/09/01 04:50:27;;;;;;;;;;;;;;;;;;5071525;28;19909;-72
2023/09/01 04:52:54;;;;;;;;;;;;;;;;;;5079967;28;19908;-72
2023/09/01 04:55:19;;;;;;;;;;;;;;;;;;5079867;28;19904;-72
2023/09/01 04:57:45;;;;;;;;;;;;;;;;;;5079353;28;19911;-71
2023/09/01 05:00:17;;;;;;;;;;;;;;;;;;5079636;28;19993;-71
2023/09/01 05:02:43;;;;;;;;;;;;;;;;;;5068450;28;19915;-70
2023/09/01 05:05:09;;;;;;;;;;;;;;;;;;5064652;28;19904;-71
2023/09/01 05:07:35;;;;;;;;;;;;;;;;;;5084258;28;20426;-70
2023/09/01 05:10:01;;;;;;;;;;;;;;;;;;5080635;28;20324;-70
2023/09/01 05:12:27;;;;;;;;;;;;;;;;;;5079647;28;19916;-71
2023/09/01 05:14:53;;;;;;;;;;;;;;;;;;5070633;28;19904;-70
2023/09/01 05:17:19;;;;;;;;;;;;;;;;;;5070642;28;19959;-70
2023/09/01 05:19:45;;;;;;;;;;;;;;;;;;5088062;28;19912;-70
2023/09/01 05:22:11;;;;;;;;;;;;;;;;;;5079139;28;19909;-71
2023/09/01 05:24:39;;;;;;;;;;;;;;;;;;5071426;28;19905;-71
2023/09/01 05:27:04;;;;;;;;;;;;;;;;;;5079164;28;19928;-71
2023/09/01 05:29:30;;;;;;;;;;;;;;;;;;5079261;28;19916;-72
2023/09/01 05:31:56;;;;;;;;;;;;;;;;;;5079212;28;19912;-72
2023/09/01 05:34:22;;;;;;;;;;;;;;;;;;5071800;28;20002;-71
2023/09/01 05:36:48;;;;;;;;;;;;;;;;;;5062896;28;19904;-71
2023/09/01 05:39:14;;;;;;;;;;;;;;;;;;5078766;28;20395;-72
2023/09/01 05:41:40;;;;;;;;;;;;;;;;;;5077262;28;19995;-70
2023/09/01 05:44:06;;;;;;;;;;;;;;;;;;5071940;28;19904;-71
2023/09/01 05:46:32;;;;;;;;;;;;;;;;;;5074891;28;19999;-70
2023/09/01 05:48:58;;;;;;;;;;;;;;;;;;5072577;28;19908;-70
2023/09/01 05:51:24;;;;;;;;;;;;;;;;;;5064504;28;20287;-70
2023/09/01 05:53:50;;;;;;;;;;;;;;;;;;5045157;28;19912;-70
2023/09/01 05:56:16;;;;;;;;;;;;;;;;;;5061624;28;19909;-70
2023/09/01 05:58:42;;;;;;;;;;;;;;;;;;5063358;28;20003;-71
2023/09/01 06:01:08;;;;;;;;;;;;;;;;;;5060514;28;19996;-70
2023/09/01 06:03:34;;;;;;;;;;;;;;;;;;5064203;28;19908;-71
2023/09/01 06:06:00;;;;;;;;;;;;;;;;;;5063377;28;19915;-71
2023/09/01 06:08:25;;;;;;;;;;;;;;;;;;5065277;28;19905;-70
2023/09/01 06:10:51;;;;;;;;;;;;;;;;;;5072094;28;19912;-71
2023/09/01 06:13:17;;;;;;;;;;;;;;;;;;5052820;28;19919;-71
2023/09/01 06:15:43;;;;;;;;;;;;;;;;;;5073403;28;19915;-71
2023/09/01 06:18:09;;;;;;;;;;;;;;;;;;5066322;28;19915;-71
2023/09/01 06:20:35;;;;;;;;;;;;;;;;;;5069041;28;20381;-71
2023/09/01 06:23:01;;;;;;;;;;;;;;;;;;5082190;28;19957;-71
2023/09/01 06:25:27;;;;;;;;;;;;;;;;;;5066209;28;19916;-71
2023/09/01 06:27:53;;;;;;;;;;;;;;;;;;5066265;28;19911;-71
2023/09/01 06:30:19;;;;;;;;;;;;;;;;;;5073810;28;20371;-71
2023/09/01 06:32:44;;;;;;;;;;;;;;;;;;5070491;28;19908;-71
2023/09/01 06:35:10;;;;;;;;;;;;;;;;;;5071060;28;20431;-71
2023/09/01 06:37:36;;;;;;;;;;;;;;;;;;5064464;28;19905;-71
2023/09/01 06:40:04;;;;;;;;;;;;;;;;;;5074895;28;19909;-71
2023/09/01 06:45:17;;;;;;;;;;;;;;;;;;;;;
2023/09/01 06:48:04;;;;;;;;;;;;;;;;;;5039180;28;19920;-72
2023/09/01 06:53:14;;;;;;;;;;;;;;;;;;5037856;28;19938;-71
2023/09/01 06:55:56;;;;;;;;;;;;;;;;;;;;;
2023/09/01 06:58:31;;;;;;;;;;;;;;;;;;5029410;28;19927;-72
2023/09/01 07:01:05;;;;;;;;;;;;;;;;;;5013910;28;19909;-73
2023/09/01 07:03:40;;;;;;;;;;;;;;;;;;5020409;28;20387;-71
2023/09/01 07:06:16;;;;;;;;;;;;;;;;;;;;;
2023/09/01 07:08:48;;;;;;;;;;;;;;;;;;5029034;28;20319;-72
2023/09/01 07:11:24;;;;;;;;;;;;;;;;;;;;;
2023/09/01 07:13:50;;;;;;;;;;;;;;;;;;4975543;28;20269;-75
2023/09/01 07:16:16;;;;;;;;;;;;;;;;;;5025841;28;19999;-73
2023/09/01 07:18:42;;;;;;;;;;;;;;;;;;5032337;28;19909;-74
2023/09/01 07:21:08;;;;;;;;;;;;;;;;;;5040803;28;19912;-74
2023/09/01 07:23:34;;;;;;;;;;;;;;;;;;5032790;28;20003;-75
2023/09/01 07:26:00;;;;;;;;;;;;;;;;;;5033014;28;19909;-74
2023/09/01 07:28:26;;;;;;;;;;;;;;;;;;5032007;28;19905;-74
2023/09/01 07:30:53;;;;;;;;;;;;;;;;;;5032706;28;20317;-74
2023/09/01 07:33:19;;;;;;;;;;;;;;;;;;5032582;28;19905;-74
2023/09/01 07:35:45;;;;;;;;;;;;;;;;;;5032386;28;19966;-74
2023/09/01 07:38:10;;;;;;;;;;;;;;;;;;5031892;28;20364;-71
2023/09/01 07:40:36;;;;;;;;;;;;;;;;;;5040659;28;19909;-71
2023/09/01 07:43:02;;;;;;;;;;;;;;;;;;5021822;28;19909;-71
2023/09/01 07:45:28;;;;;;;;;;;;;;;;;;5032261;28;20038;-70
2023/09/01 07:47:54;;;;;;;;;;;;;;;;;;5014141;28;19905;-71
2023/09/01 07:50:23;;;;;;;;;;;;;;;;;;5032563;28;20467;-71
2023/09/01 07:52:49;;;;;;;;;;;;;;;;;;5032378;28;19916;-71
2023/09/01 07:55:15;;;;;;;;;;;;;;;;;;5032423;28;19905;-71
2023/09/01 07:57:41;;;;;;;;;;;;;;;;;;5031977;28;19928;-71
2023/09/01 08:00:07;;;;;;;;;;;;;;;;;;5032367;28;19948;-71
2023/09/01 08:02:33;;;;;;;;;;;;;;;;;;5032247;28;19909;-71
2023/09/01 08:04:59;;;;;;;;;;;;;;;;;;5032047;28;19905;-72
2023/09/01 08:07:25;;;;;;;;;;;;;;;;;;5031258;28;19909;-71
2023/09/01 08:09:51;;;;;;;;;;;;;;;;;;5032146;28;19905;-71
2023/09/01 08:12:17;;;;;;;;;;;;;;;;;;5031920;28;19928;-71
2023/09/01 08:14:43;;;;;;;;;;;;;;;;;;5031895;28;19995;-71
2023/09/01 08:17:09;;;;;;;;;;;;;;;;;;5031716;28;20330;-71
2023/09/01 08:19:36;;;;;;;;;;;;;;;;;;5031238;28;19966;-73
2023/09/01 08:22:02;;;;;;;;;;;;;;;;;;5031811;28;19917;-71
2023/09/01 08:24:28;;;;;;;;;;;;;;;;;;5031801;28;19912;-71
2023/09/01 08:26:53;;;;;;;;;;;;;;;;;;5031605;28;19905;-73
2023/09/01 08:29:19;;;;;;;;;;;;;;;;;;5031184;28;19905;-70
2023/09/01 08:31:45;;;;;;;;;;;;;;;;;;5031777;28;20344;-71
2023/09/01 08:34:11;;;;;;;;;;;;;;;;;;5031513;28;19909;-70
2023/09/01 08:36:37;;;;;;;;;;;;;;;;;;5031712;28;19905;-70
2023/09/01 08:39:03;;;;;;;;;;;;;;;;;;5030994;28;20012;-70
2023/09/01 08:41:29;;;;;;;;;;;;;;;;;;5013909;28;20007;-71
2023/09/01 08:43:55;;;;;;;;;;;;;;;;;;5031441;28;20290;-70
2023/09/01 08:46:21;;;;;;;;;;;;;;;;;;5031649;28;19905;-71
2023/09/01 08:48:47;;;;;;;;;;;;;;;;;;5030863;28;19909;-72
2023/09/01 08:51:14;;;;;;;;;;;;;;;;;;5031493;28;20396;-71
2023/09/01 08:53:40;;;;;;;;;;;;;;;;;;5031561;28;19956;-71
2023/09/01 08:56:06;;;;;;;;;;;;;;;;;;5031395;28;19905;-71
2023/09/01 08:58:32;;;;;;;;;;;;;;;;;;5030856;28;20000;-70
2023/09/01 09:00:58;;;;;;;;;;;;;;;;;;5013513;28;20000;-70
2023/09/01 09:03:24;;;;;;;;;;;;;;;;;;5031260;28;20365;-70
2023/09/01 09:05:50;;;;;;;;;;;;;;;;;;5031345;28;19999;-72
2023/09/01 09:08:16;;;;;;;;;;;;;;;;;;5030460;28;20380;-71
2023/09/01 09:10:41;;;;;;;;;;;;;;;;;;5013577;28;20291;-71
2023/09/01 09:13:07;;;;;;;;;;;;;;;;;;5046301;22;19915;-72
2023/09/01 09:15:33;;;;;;;;;;;;;;;;;;5031456;28;19909;-71
2023/09/01 09:17:59;;;;;;;;;;;;;;;;;;5030563;28;19995;-72
2023/09/01 09:20:25;;;;;;;;;;;;;;;;;;5035008;28;19925;-71
2023/09/01 09:22:51;;;;;;;;;;;;;;;;;;5035262;28;19905;-71
2023/09/01 09:25:17;;;;;;;;;;;;;;;;;;5035145;28;19912;-72
2023/09/01 09:27:43;;;;;;;;;;;;;;;;;;5016712;28;19909;-71
2023/09/01 09:30:09;;;;;;;;;;;;;;;;;;5035552;28;20287;-71
2023/09/01 09:32:35;;;;;;;;;;;;;;;;;;5035022;28;19971;-73
2023/09/01 09:35:01;;;;;;;;;;;;;;;;;;5034924;28;19944;-71
2023/09/01 09:37:26;;;;;;;;;;;;;;;;;;5034488;28;19996;-71
2023/09/01 09:39:52;;;;;;;;;;;;;;;;;;5035123;28;20375;-71
2023/09/01 09:42:18;;;;;;;;;;;;;;;;;;5017150;28;19905;-72
2023/09/01 09:44:44;;;;;;;;;;;;;;;;;;5034888;28;19928;-73
2023/09/01 09:47:12;;;;;;;;;;;;;;;;;;5034885;28;19905;-72
2023/09/01 09:49:38;;;;;;;;;;;;;;;;;;5034569;28;19912;-72
2023/09/01 09:52:04;;;;;;;;;;;;;;;;;;5034838;28;19909;-72
2023/09/01 09:54:30;;;;;;;;;;;;;;;;;;5035151;28;19905;-71
2023/09/01 09:56:56;;;;;;;;;;;;;;;;;;5034894;28;19905;-72
2023/09/01 09:59:22;;;;;;;;;;;;;;;;;;5034255;28;19988;-72
2023/09/01 10:01:48;;;;;;;;;;;;;;;;;;5034469;28;20360;-73
2023/09/01 10:04:13;;;;;;;;;;;;;;;;;;5034512;28;19932;-71
2023/09/01 10:06:40;;;;;;;;;;;;;;;;;;5016664;28;19905;-71
2023/09/01 10:09:08;;;;;;;;;;;;;;;;;;5033811;28;19908;-72
2023/09/01 10:11:33;;;;;;;;;;;;;;;;;;5034717;28;20263;-72
2023/09/01 10:13:59;;;;;;;;;;;;;;;;;;5034314;28;19913;-71
2023/09/01 10:16:25;;;;;;;;;;;;;;;;;;5034315;28;19916;-72
2023/09/01 10:18:52;;;;;;;;;;;;;;;;;;5033821;28;20273;-71
2023/09/01 10:21:18;;;;;;;;;;;;;;;;;;5034068;28;19909;-73
2023/09/01 10:23:44;;;;;;;;;;;;;;;;;;5035026;28;19905;-72
2023/09/01 10:26:10;;;;;;;;;;;;;;;;;;5034496;28;20284;-72
2023/09/01 10:28:36;;;;;;;;;;;;;;;;;;5033884;28;19952;-72
2023/09/01 10:31:02;;;;;;;;;;;;;;;;;;5033754;28;19949;-72
2023/09/01 10:33:28;;;;;;;;;;;;;;;;;;5034243;28;19912;-73
2023/09/01 10:35:53;;;;;;;;;;;;;;;;;;5034568;28;19913;-72
2023/09/01 10:38:20;;;;;;;;;;;;;;;;;;5033896;28;20372;-72
2023/09/01 10:40:47;;;;;;;;;;;;;;;;;;5033877;28;19962;-72
2023/09/01 10:43:13;;;;;;;;;;;;;;;;;;5016003;28;20384;-72
2023/09/01 10:45:39;;;;;;;;;;;;;;;;;;5034442;28;19916;-72
2023/09/01 10:48:11;;;;;;;;;;;;;;;;;;5033340;28;19916;-73
2023/09/01 10:50:37;;;;;;;;;;;;;;;;;;5033753;28;19916;-73
2023/09/01 10:53:03;;;;;;;;;;;;;;;;;;5033396;28;19905;-71
2023/09/01 10:55:33;;;;;;;;;;;;;;;;;;5033753;28;20436;-72
2023/09/01 10:57:59;;;;;;;;;;;;;;;;;;5032993;28;19905;-72
2023/09/01 11:00:34;;;;;;;;;;;;;;;;;;5033599;28;19963;-73
2023/09/01 11:02:59;;;;;;;;;;;;;;;;;;5033461;28;20372;-73
2023/09/01 11:05:25;;;;;;;;;;;;;;;;;;5033270;28;19956;-73
2023/09/01 11:07:51;;;;;;;;;;;;;;;;;;5033230;28;19905;-72
2023/09/01 11:10:17;;;;;;;;;;;;;;;;;;5033585;28;19959;-73
2023/09/01 11:12:43;;;;;;;;;;;;;;;;;;5033498;28;20277;-71
2023/09/01 11:15:09;;;;;;;;;;;;;;;;;;5032986;28;19963;-73
2023/09/01 11:17:37;;;;;;;;;;;;;;;;;;5032570;28;19909;-72
2023/09/01 11:20:05;;;;;;;;;;;;;;;;;;5032996;28;19932;-72
2023/09/01 11:22:30;;;;;;;;;;;;;;;;;;5033036;28;20333;-72
2023/09/01 11:24:56;;;;;;;;;;;;;;;;;;5032890;28;19952;-72
2023/09/01 11:27:22;;;;;;;;;;;;;;;;;;5032473;28;20004;-72
2023/09/01 11:29:50;;;;;;;;;;;;;;;;;;5032911;28;19901;-73
2023/09/01 11:32:16;;;;;;;;;;;;;;;;;;5033064;28;19905;-72
2023/09/01 11:34:42;;;;;;;;;;;;;;;;;;5015310;28;20547;-71
2023/09/01 11:37:08;;;;;;;;;;;;;;;;;;5032916;28;19912;-72
2023/09/01 11:39:34;;;;;;;;;;;;;;;;;;5032263;28;19901;-73
2023/09/01 11:41:59;;;;;;;;;;;;;;;;;;5032134;28;20288;-73
2023/09/01 11:44:25;;;;;;;;;;;;;;;;;;5032247;28;19909;-72
2023/09/01 11:46:51;;;;;;;;;;;;;;;;;;5032415;28;19905;-72
2023/09/01 11:49:17;;;;;;;;;;;;;;;;;;5031974;28;20443;-73
2023/09/01 11:51:43;;;;;;;;;;;;;;;;;;5032578;28;20510;-72
2023/09/01 11:54:09;;;;;;;;;;;;;;;;;;5032459;28;19952;-71
2023/09/01 11:56:35;;;;;;;;;;;;;;;;;;5032643;28;20388;-72
2023/09/01 11:59:01;;;;;;;;;;;;;;;;;;5031559;28;20003;-73
2023/09/01 12:01:27;;;;;;;;;;;;;;;;;;5032865;28;20004;-71
2023/09/01 12:03:53;;;;;;;;;;;;;;;;;;5032326;28;19909;-72
2023/09/01 12:06:19;;;;;;;;;;;;;;;;;;5032639;28;19905;-72
2023/09/01 12:08:45;;;;;;;;;;;;;;;;;;5031727;28;19959;-71
2023/09/01 12:11:11;;;;;;;;;;;;;;;;;;5032456;28;19905;-71
2023/09/01 12:13:37;;;;;;;;;;;;;;;;;;5031839;28;20509;-71
2023/09/01 12:16:03;;;;;;;;;;;;;;;;;;5032297;28;19905;-71
2023/09/01 12:18:28;;;;;;;;;;;;;;;;;;5031506;28;19991;-71
2023/09/01 12:20:54;;;;;;;;;;;;;;;;;;5032374;28;19909;-72
2023/09/01 12:23:20;;;;;;;;;;;;;;;;;;5014118;28;20490;-72
2023/09/01 12:25:46;;;;;;;;;;;;;;;;;;5031945;28;19905;-72
2023/09/01 12:28:12;;;;;;;;;;;;;;;;;;5031573;28;19905;-72
2023/09/01 12:30:38;;;;;;;;;;;;;;;;;;5032069;28;19909;-72
2023/09/01 12:33:04;;;;;;;;;;;;;;;;;;5031766;28;20393;-72
2023/09/01 12:35:30;;;;;;;;;;;;;;;;;;5031818;28;20364;-72
2023/09/01 12:37:56;;;;;;;;;;;;;;;;;;5031567;28;19961;-72
2023/09/01 12:40:22;;;;;;;;;;;;;;;;;;5032021;28;19916;-71
2023/09/01 12:42:48;;;;;;;;;;;;;;;;;;5031607;28;19952;-73
2023/09/01 12:45:13;;;;;;;;;;;;;;;;;;5031743;28;19991;-72
2023/09/01 12:47:40;;;;;;;;;;;;;;;;;;5031087;28;19912;-72
2023/09/01 12:50:06;;;;;;;;;;;;;;;;;;5014219;28;19905;-72
2023/09/01 12:52:32;;;;;;;;;;;;;;;;;;5031685;28;19999;-71
2023/09/01 12:54:58;;;;;;;;;;;;;;;;;;5032597;28;20043;-72
2023/09/01 12:57:24;;;;;;;;;;;;;;;;;;5030630;28;19910;-70
2023/09/01 12:59:50;;;;;;;;;;;;;;;;;;5031335;28;19905;-72
2023/09/01 13:02:16;;;;;;;;;;;;;;;;;;5031294;28;19991;-72
2023/09/01 13:04:43;;;;;;;;;;;;;;;;;;5031415;28;20273;-73
2023/09/01 13:07:10;;;;;;;;;;;;;;;;;;5031722;28;19905;-71
2023/09/01 13:09:36;;;;;;;;;;;;;;;;;;5030922;28;19935;-71
2023/09/01 13:12:02;;;;;;;;;;;;;;;;;;5031507;28;20349;-72
2023/09/01 13:14:28;;;;;;;;;;;;;;;;;;5031052;28;19923;-71
2023/09/01 13:16:54;;;;;;;;;;;;;;;;;;5030927;28;19916;-72
2023/09/01 13:19:20;;;;;;;;;;;;;;;;;;5013094;28;20387;-72
2023/09/01 13:21:45;;;;;;;;;;;;;;;;;;5031062;28;19916;-72
2023/09/01 13:24:11;;;;;;;;;;;;;;;;;;5031141;28;20373;-73
2023/09/01 13:26:37;;;;;;;;;;;;;;;;;;5031207;28;19905;-72
2023/09/01 13:29:03;;;;;;;;;;;;;;;;;;5030488;28;19905;-72
2023/09/01 13:31:29;;;;;;;;;;;;;;;;;;5031157;28;20038;-72
2023/09/01 13:33:55;;;;;;;;;;;;;;;;;;5031169;28;19916;-72
2023/09/01 13:36:21;;;;;;;;;;;;;;;;;;5031304;28;19912;-72
2023/09/01 13:38:49;;;;;;;;;;;;;;;;;;5030685;28;19905;-72
2023/09/01 13:41:15;;;;;;;;;;;;;;;;;;5031014;28;20478;-72
2023/09/01 13:43:41;;;;;;;;;;;;;;;;;;5031276;28;19929;-72
2023/09/01 13:46:07;;;;;;;;;;;;;;;;;;5031114;28;19959;-71
2023/09/01 13:48:33;;;;;;;;;;;;;;;;;;5030637;28;19999;-72
2023/09/01 13:50:59;;;;;;;;;;;;;;;;;;5030840;28;19911;-72
2023/09/01 13:53:25;;;;;;;;;;;;;;;;;;5030857;28;20000;-71
2023/09/01 13:55:50;;;;;;;;;;;;;;;;;;5030395;28;20327;-72
2023/09/01 13:58:16;;;;;;;;;;;;;;;;;;5030039;28;19905;-73
2023/09/01 14:00:42;;;;;;;;;;;;;;;;;;5030841;28;19908;-72
2023/09/01 14:03:09;;;;;;;;;;;;;;;;;;5030894;28;19959;-72
2023/09/01 14:05:34;;;;;;;;;;;;;;;;;;5031590;28;19909;-73
2023/09/01 14:08:00;;;;;;;;;;;;;;;;;;5033824;28;20004;-74
2023/09/01 14:10:26;;;;;;;;;;;;;;;;;;5034576;28;19999;-71
2023/09/01 14:12:53;;;;;;;;;;;;;;;;;;5034725;28;19967;-72
2023/09/01 14:15:19;;;;;;;;;;;;;;;;;;5034333;28;20218;-72
2023/09/01 14:17:45;;;;;;;;;;;;;;;;;;5033680;28;19912;-73
2023/09/01 14:20:11;;;;;;;;;;;;;;;;;;5034050;28;19909;-72
2023/09/01 14:22:37;;;;;;;;;;;;;;;;;;5034173;28;19960;-72
2023/09/01 14:25:03;;;;;;;;;;;;;;;;;;5034153;28;19912;-73
2023/09/01 14:27:29;;;;;;;;;;;;;;;;;;5033632;28;19954;-71
2023/09/01 14:29:55;;;;;;;;;;;;;;;;;;5034241;28;19905;-72
2023/09/01 14:32:21;;;;;;;;;;;;;;;;;;5034269;28;19947;-72
2023/09/01 14:34:46;;;;;;;;;;;;;;;;;;5034332;28;20352;-72
2023/09/01 14:37:12;;;;;;;;;;;;;;;;;;5033835;28;19905;-72
2023/09/01 14:39:38;;;;;;;;;;;;;;;;;;5033620;28;19909;-73
2023/09/01 14:42:04;;;;;;;;;;;;;;;;;;5033733;28;19909;-73
2023/09/01 14:44:30;;;;;;;;;;;;;;;;;;5034330;28;19912;-73
2023/09/01 14:46:56;;;;;;;;;;;;;;;;;;5033967;28;19912;-73
2023/09/01 14:49:22;;;;;;;;;;;;;;;;;;5033631;28;19959;-73
2023/09/01 14:51:48;;;;;;;;;;;;;;;;;;5033949;28;20342;-72
2023/09/01 14:54:14;;;;;;;;;;;;;;;;;;5032199;28;19909;-72
2023/09/01 14:56:39;;;;;;;;;;;;;;;;;;5033429;28;19999;-72
2023/09/01 14:59:05;;;;;;;;;;;;;;;;;;5033293;28;19911;-72
2023/09/01 15:01:31;;;;;;;;;;;;;;;;;;5033371;28;19913;-72
2023/09/01 15:03:57;;;;;;;;;;;;;;;;;;5031929;28;20351;-72
2023/09/01 15:06:23;;;;;;;;;;;;;;;;;;5033520;28;19996;-70
2023/09/01 15:08:49;;;;;;;;;;;;;;;;;;5032946;28;20276;-72
2023/09/01 15:11:15;;;;;;;;;;;;;;;;;;5033164;28;19909;-70
2023/09/01 15:13:41;;;;;;;;;;;;;;;;;;5035619;28;19928;-72
2023/09/01 15:16:06;;;;;;;;;;;;;;;;;;5023167;28;19916;-72
2023/09/01 15:18:32;;;;;;;;;;;;;;;;;;5004733;28;20378;-73
2023/09/01 15:20:58;;;;;;;;;;;;;;;;;;5031347;28;19963;-72
2023/09/01 15:23:24;;;;;;;;;;;;;;;;;;5030826;28;20516;-72
2023/09/01 15:25:50;;;;;;;;;;;;;;;;;;5031118;28;19905;-72
2023/09/01 15:28:16;;;;;;;;;;;;;;;;;;5030605;28;20341;-72
2023/09/01 15:30:42;;;;;;;;;;;;;;;;;;5031269;28;19911;-71
2023/09/01 15:33:08;;;;;;;;;;;;;;;;;;5029638;28;19909;-72
2023/09/01 15:35:34;;;;;;;;;;;;;;;;;;5031398;28;20105;-72
2023/09/01 15:38:00;;;;;;;;;;;;;;;;;;5031650;28;19905;-72
2023/09/01 15:40:26;;;;;;;;;;;;;;;;;;5032576;28;19913;-70
2023/09/01 15:42:52;;;;;;;;;;;;;;;;;;5032678;28;20383;-71
2023/09/01 15:45:18;;;;;;;;;;;;;;;;;;5032789;28;19936;-72
2023/09/01 15:47:43;;;;;;;;;;;;;;;;;;5030897;28;19951;-71
2023/09/01 15:50:09;;;;;;;;;;;;;;;;;;5031647;28;20295;-71
2023/09/01 15:52:35;;;;;;;;;;;;;;;;;;5032114;28;19912;-71
2023/09/01 15:55:04;;;;;;;;;;;;;;;;;;5031872;28;19932;-70
2023/09/01 15:57:30;;;;;;;;;;;;;;;;;;5031720;28;19916;-72
2023/09/01 15:59:56;;;;;;;;;;;;;;;;;;5032319;28;19909;-73
2023/09/01 16:02:22;;;;;;;;;;;;;;;;;;5032155;28;19904;-71
2023/09/01 16:04:48;;;;;;;;;;;;;;;;;;5032371;28;20402;-71
2023/09/01 16:07:14;;;;;;;;;;;;;;;;;;5031782;28;19908;-69
2023/09/01 16:09:40;;;;;;;;;;;;;;;;;;5031628;28;19912;-71
2023/09/01 16:12:06;;;;;;;;;;;;;;;;;;5031882;28;19978;-74
2023/09/01 16:14:32;;;;;;;;;;;;;;;;;;5031954;28;19913;-69
2023/09/01 16:16:59;;;;;;;;;;;;;;;;;;5032052;28;19911;-72
2023/09/01 16:19:25;;;;;;;;;;;;;;;;;;5031989;28;19909;-72
2023/09/01 16:21:50;;;;;;;;;;;;;;;;;;5029745;28;19915;-72
2023/09/01 16:24:16;;;;;;;;;;;;;;;;;;5012512;28;19951;-74
2023/09/01 16:26:42;;;;;;;;;;;;;;;;;;5031269;28;19901;-72
2023/09/01 16:29:08;;;;;;;;;;;;;;;;;;5030119;28;19959;-71
2023/09/01 16:31:38;;;;;;;;;;;;;;;;;;5013097;28;19905;-72
2023/09/01 16:34:03;;;;;;;;;;;;;;;;;;5030346;28;19905;-72
2023/09/01 16:36:29;;;;;;;;;;;;;;;;;;5030772;28;19954;-72
2023/09/01 16:38:55;;;;;;;;;;;;;;;;;;5029290;28;19909;-71
2023/09/01 16:41:21;;;;;;;;;;;;;;;;;;5030578;28;20430;-71
2023/09/01 16:43:47;;;;;;;;;;;;;;;;;;5030926;28;19905;-72
2023/09/01 16:46:13;;;;;;;;;;;;;;;;;;5031138;28;19928;-73